sensor_id;sensor_type;location;lat;lon;timestamp;P1;durP1;ratioP1;P2;durP2;ratioP2
76617;SDS011;65509;42.816;74.648;2023-02-04T13:19:55;103.32;;;43.60;;
76617;SDS011;65509;42.816;74.648;2023-02-04T13:22:21;93.10;;;42.50;;
76617;SDS011;65509;42.816;74.648;2023-02-04T13:24:47;85.20;;;37.60;;
76617;SDS011;65509;42.816;74.648;2023-02-04T13:27:12;75.65;;;34.50;;
76617;SDS011;65509;42.816;74.648;2023-02-04T13:29:39;73.85;;;31.40;;
76617;SDS011;65509;42.816;74.648;2023-02-04T13:32:04;55.20;;;25.40;;
76617;SDS011;65509;42.816;74.648;2023-02-04T13:34:31;57.35;;;25.52;;
76617;SDS011;65509;42.816;74.648;2023-02-04T13:37:04;67.35;;;26.25;;
76617;SDS011;65509;42.816;74.648;2023-02-04T13:39:30;61.25;;;24.55;;
76617;SDS011;65509;42.816;74.648;2023-02-04T13:41:57;62.97;;;26.52;;
76617;SDS011;65509;42.816;74.648;2023-02-04T13:44:23;63.35;;;26.52;;
76617;SDS011;65509;42.816;74.648;2023-02-04T13:47:07;102.70;;;44.72;;
76617;SDS011;65509;42.816;74.648;2023-02-04T13:49:43;116.40;;;48.20;;
76617;SDS011;65509;42.816;74.648;2023-02-04T13:52:17;118.53;;;50.20;;
76617;SDS011;65509;42.816;74.648;2023-02-04T13:54:50;112.95;;;47.90;;
76617;SDS011;65509;42.816;74.648;2023-02-04T13:57:19;94.03;;;41.28;;
76617;SDS011;65509;42.816;74.648;2023-02-04T13:59:47;91.05;;;37.25;;
76617;SDS011;65509;42.816;74.648;2023-02-04T14:02:15;63.75;;;26.98;;
76617;SDS011;65509;42.816;74.648;2023-02-04T14:04:44;62.08;;;27.52;;
76617;SDS011;65509;42.816;74.648;2023-02-04T14:07:09;66.43;;;28.02;;
76617;SDS011;65509;42.816;74.648;2023-02-04T14:09:34;53.38;;;22.73;;
76617;SDS011;65509;42.816;74.648;2023-02-04T14:12:00;38.70;;;17.73;;
76617;SDS011;65509;42.816;74.648;2023-02-04T14:16:51;32.85;;;12.82;;
76617;SDS011;65509;42.816;74.648;2023-02-04T14:19:18;29.60;;;11.57;;
76617;SDS011;65509;42.816;74.648;2023-02-04T14:21:44;29.27;;;12.48;;
76617;SDS011;65509;42.816;74.648;2023-02-04T14:24:14;26.08;;;11.38;;
76617;SDS011;65509;42.816;74.648;2023-02-04T14:26:41;24.50;;;11.52;;
76617;SDS011;65509;42.816;74.648;2023-02-04T14:29:06;30.67;;;11.32;;
76617;SDS011;65509;42.816;74.648;2023-02-04T14:31:32;36.63;;;14.95;;
76617;SDS011;65509;42.816;74.648;2023-02-04T14:37:03;53.85;;;24.83;;
76617;SDS011;65509;42.816;74.648;2023-02-04T14:39:51;65.22;;;27.98;;
76617;SDS011;65509;42.816;74.648;2023-02-04T14:42:19;45.60;;;20.67;;
76617;SDS011;65509;42.816;74.648;2023-02-04T14:44:47;33.25;;;15.20;;
76617;SDS011;65509;42.816;74.648;2023-02-04T14:47:13;43.85;;;16.48;;
76617;SDS011;65509;42.816;74.648;2023-02-04T14:49:48;44.15;;;20.08;;
76617;SDS011;65509;42.816;74.648;2023-02-04T14:52:13;58.30;;;25.17;;
76617;SDS011;65509;42.816;74.648;2023-02-04T14:54:39;63.25;;;25.92;;
76617;SDS011;65509;42.816;74.648;2023-02-04T14:57:05;57.53;;;25.63;;
76617;SDS011;65509;42.816;74.648;2023-02-04T14:59:37;50.45;;;23.65;;
76617;SDS011;65509;42.816;74.648;2023-02-04T15:02:03;76.22;;;32.20;;
76617;SDS011;65509;42.816;74.648;2023-02-04T15:04:30;86.03;;;37.80;;
76617;SDS011;65509;42.816;74.648;2023-02-04T15:06:57;78.88;;;35.83;;
76617;SDS011;65509;42.816;74.648;2023-02-04T15:09:25;65.50;;;28.52;;
76617;SDS011;65509;42.816;74.648;2023-02-04T15:11:51;67.97;;;31.67;;
76617;SDS011;65509;42.816;74.648;2023-02-04T15:14:16;49.80;;;25.08;;
76617;SDS011;65509;42.816;74.648;2023-02-04T15:16:42;51.22;;;24.02;;
76617;SDS011;65509;42.816;74.648;2023-02-04T15:19:09;41.35;;;20.83;;
76617;SDS011;65509;42.816;74.648;2023-02-04T15:21:34;34.50;;;16.35;;
76617;SDS011;65509;42.816;74.648;2023-02-04T15:24:00;33.88;;;13.90;;
76617;SDS011;65509;42.816;74.648;2023-02-04T15:26:25;25.15;;;11.68;;
76617;SDS011;65509;42.816;74.648;2023-02-04T15:28:50;31.75;;;10.90;;
76617;SDS011;65509;42.816;74.648;2023-02-04T15:31:16;33.85;;;14.23;;
76617;SDS011;65509;42.816;74.648;2023-02-04T15:33:44;43.92;;;19.20;;
76617;SDS011;65509;42.816;74.648;2023-02-04T15:36:13;53.17;;;22.17;;
76617;SDS011;65509;42.816;74.648;2023-02-04T15:38:40;88.38;;;31.73;;
76617;SDS011;65509;42.816;74.648;2023-02-04T15:41:07;82.80;;;33.80;;
76617;SDS011;65509;42.816;74.648;2023-02-04T15:43:33;51.92;;;20.95;;
76617;SDS011;65509;42.816;74.648;2023-02-04T15:45:58;36.22;;;14.50;;
76617;SDS011;65509;42.816;74.648;2023-02-04T15:48:24;30.35;;;12.45;;
76617;SDS011;65509;42.816;74.648;2023-02-04T15:50:51;40.05;;;14.50;;
76617;SDS011;65509;42.816;74.648;2023-02-04T15:53:17;41.25;;;15.10;;
76617;SDS011;65509;42.816;74.648;2023-02-04T15:55:42;68.40;;;21.70;;
76617;SDS011;65509;42.816;74.648;2023-02-04T15:58:08;85.40;;;27.70;;
76617;SDS011;65509;42.816;74.648;2023-02-04T16:00:33;87.03;;;25.40;;
76617;SDS011;65509;42.816;74.648;2023-02-04T16:02:59;98.50;;;31.02;;
76617;SDS011;65509;42.816;74.648;2023-02-04T16:05:24;91.53;;;31.65;;
76617;SDS011;65509;42.816;74.648;2023-02-04T16:07:52;44.53;;;16.30;;
76617;SDS011;65509;42.816;74.648;2023-02-04T16:10:18;66.63;;;23.52;;
76617;SDS011;65509;42.816;74.648;2023-02-04T16:12:44;80.68;;;26.45;;
76617;SDS011;65509;42.816;74.648;2023-02-04T16:15:11;55.85;;;23.90;;
76617;SDS011;65509;42.816;74.648;2023-02-04T16:17:37;82.32;;;32.55;;
76617;SDS011;65509;42.816;74.648;2023-02-04T16:20:02;89.25;;;33.75;;
76617;SDS011;65509;42.816;74.648;2023-02-04T16:22:28;81.88;;;34.10;;
76617;SDS011;65509;42.816;74.648;2023-02-04T16:24:54;87.22;;;37.20;;
76617;SDS011;65509;42.816;74.648;2023-02-04T16:27:19;68.65;;;30.50;;
76617;SDS011;65509;42.816;74.648;2023-02-04T16:29:45;64.45;;;29.73;;
76617;SDS011;65509;42.816;74.648;2023-02-04T16:32:11;52.40;;;22.83;;
76617;SDS011;65509;42.816;74.648;2023-02-04T16:34:36;48.13;;;20.88;;
76617;SDS011;65509;42.816;74.648;2023-02-04T16:37:02;50.10;;;21.17;;
76617;SDS011;65509;42.816;74.648;2023-02-04T16:39:27;46.45;;;19.88;;
76617;SDS011;65509;42.816;74.648;2023-02-04T16:41:52;63.45;;;26.02;;
76617;SDS011;65509;42.816;74.648;2023-02-04T16:44:18;57.35;;;25.40;;
76617;SDS011;65509;42.816;74.648;2023-02-04T16:46:45;62.17;;;25.10;;
76617;SDS011;65509;42.816;74.648;2023-02-04T16:49:10;55.58;;;22.00;;
76617;SDS011;65509;42.816;74.648;2023-02-04T16:51:38;46.25;;;20.98;;
76617;SDS011;65509;42.816;74.648;2023-02-04T16:54:06;41.22;;;16.48;;
76617;SDS011;65509;42.816;74.648;2023-02-04T16:56:35;37.13;;;14.00;;
76617;SDS011;65509;42.816;74.648;2023-02-04T16:59:00;38.78;;;18.13;;
76617;SDS011;65509;42.816;74.648;2023-02-04T17:01:29;34.83;;;16.25;;
76617;SDS011;65509;42.816;74.648;2023-02-04T17:04:04;31.25;;;14.25;;
76617;SDS011;65509;42.816;74.648;2023-02-04T17:06:37;29.50;;;13.23;;
76617;SDS011;65509;42.816;74.648;2023-02-04T17:09:07;48.22;;;20.65;;
76617;SDS011;65509;42.816;74.648;2023-02-04T17:11:44;68.55;;;28.55;;
76617;SDS011;65509;42.816;74.648;2023-02-04T17:17:02;54.13;;;23.20;;
76617;SDS011;65509;42.816;74.648;2023-02-04T17:19:49;42.78;;;19.90;;
76617;SDS011;65509;42.816;74.648;2023-02-04T17:22:14;52.58;;;19.95;;
76617;SDS011;65509;42.816;74.648;2023-02-04T17:24:39;37.85;;;16.98;;
76617;SDS011;65509;42.816;74.648;2023-02-04T17:27:13;36.17;;;13.80;;
76617;SDS011;65509;42.816;74.648;2023-02-04T17:29:42;29.90;;;14.13;;
76617;SDS011;65509;42.816;74.648;2023-02-04T17:32:07;28.42;;;13.20;;
76617;SDS011;65509;42.816;74.648;2023-02-04T17:37:17;33.13;;;14.32;;
76617;SDS011;65509;42.816;74.648;2023-02-04T17:40:01;31.80;;;13.00;;
76617;SDS011;65509;42.816;74.648;2023-02-04T17:42:35;39.77;;;15.00;;
76617;SDS011;65509;42.816;74.648;2023-02-04T17:45:01;32.63;;;13.82;;
76617;SDS011;65509;42.816;74.648;2023-02-04T17:47:26;35.63;;;12.95;;
76617;SDS011;65509;42.816;74.648;2023-02-04T17:49:52;36.65;;;13.43;;
76617;SDS011;65509;42.816;74.648;2023-02-04T17:52:20;38.70;;;12.90;;
76617;SDS011;65509;42.816;74.648;2023-02-04T17:54:54;35.38;;;12.60;;
76617;SDS011;65509;42.816;74.648;2023-02-04T17:57:20;36.28;;;13.27;;
76617;SDS011;65509;42.816;74.648;2023-02-04T17:59:45;40.90;;;13.88;;
76617;SDS011;65509;42.816;74.648;2023-02-04T18:02:25;35.92;;;13.85;;
76617;SDS011;65509;42.816;74.648;2023-02-04T18:10:34;44.20;;;14.77;;
76617;SDS011;65509;42.816;74.648;2023-02-04T18:13:14;39.10;;;13.52;;
76617;SDS011;65509;42.816;74.648;2023-02-04T18:15:40;33.97;;;11.77;;
76617;SDS011;65509;42.816;74.648;2023-02-04T18:20:46;35.40;;;12.88;;
76617;SDS011;65509;42.816;74.648;2023-02-04T18:23:18;39.28;;;14.90;;
76617;SDS011;65509;42.816;74.648;2023-02-04T18:25:51;36.38;;;13.50;;
76617;SDS011;65509;42.816;74.648;2023-02-04T18:28:17;25.52;;;10.60;;
76617;SDS011;65509;42.816;74.648;2023-02-04T18:30:43;33.10;;;11.15;;
76617;SDS011;65509;42.816;74.648;2023-02-04T18:35:41;34.72;;;12.13;;
76617;SDS011;65509;42.816;74.648;2023-02-04T18:38:24;33.30;;;11.85;;
76617;SDS011;65509;42.816;74.648;2023-02-04T18:40:51;35.70;;;12.50;;
76617;SDS011;65509;42.816;74.648;2023-02-04T18:43:26;27.33;;;11.73;;
76617;SDS011;65509;42.816;74.648;2023-02-04T18:45:52;31.10;;;11.38;;
76617;SDS011;65509;42.816;74.648;2023-02-04T18:50:44;28.33;;;11.23;;
76617;SDS011;65509;42.816;74.648;2023-02-04T18:55:42;22.95;;;10.43;;
76617;SDS011;65509;42.816;74.648;2023-02-04T18:58:32;34.05;;;11.20;;
76617;SDS011;65509;42.816;74.648;2023-02-04T19:00:56;28.27;;;10.95;;
76617;SDS011;65509;42.816;74.648;2023-02-04T19:03:30;31.33;;;11.82;;
76617;SDS011;65509;42.816;74.648;2023-02-04T19:05:58;28.08;;;10.43;;
76617;SDS011;65509;42.816;74.648;2023-02-04T19:08:28;29.33;;;10.95;;
76617;SDS011;65509;42.816;74.648;2023-02-04T19:10:55;29.08;;;10.52;;
76617;SDS011;65509;42.816;74.648;2023-02-04T19:13:22;24.42;;;9.57;;
76617;SDS011;65509;42.816;74.648;2023-02-04T19:15:53;34.72;;;12.02;;
76617;SDS011;65509;42.816;74.648;2023-02-04T19:20:53;22.92;;;10.00;;
76617;SDS011;65509;42.816;74.648;2023-02-04T19:23:20;20.98;;;8.90;;
76617;SDS011;65509;42.816;74.648;2023-02-04T19:25:48;21.77;;;8.80;;
76617;SDS011;65509;42.816;74.648;2023-02-04T19:28:24;31.17;;;10.00;;
76617;SDS011;65509;42.816;74.648;2023-02-04T19:31:03;20.05;;;8.45;;
76617;SDS011;65509;42.816;74.648;2023-02-04T19:35:57;22.40;;;8.68;;
76617;SDS011;65509;42.816;74.648;2023-02-04T19:40:50;17.45;;;7.07;;
76617;SDS011;65509;42.816;74.648;2023-02-04T19:43:32;19.10;;;6.70;;
76617;SDS011;65509;42.816;74.648;2023-02-04T19:45:59;18.58;;;7.28;;
76617;SDS011;65509;42.816;74.648;2023-02-04T19:50:59;18.30;;;6.75;;
76617;SDS011;65509;42.816;74.648;2023-02-04T19:53:28;18.70;;;6.13;;
76617;SDS011;65509;42.816;74.648;2023-02-04T19:55:55;15.90;;;6.32;;
76617;SDS011;65509;42.816;74.648;2023-02-04T19:58:24;13.85;;;6.20;;
76617;SDS011;65509;42.816;74.648;2023-02-04T20:01:08;23.52;;;7.70;;
76617;SDS011;65509;42.816;74.648;2023-02-04T20:03:44;19.02;;;7.32;;
76617;SDS011;65509;42.816;74.648;2023-02-04T20:11:41;26.50;;;8.63;;
76617;SDS011;65509;42.816;74.648;2023-02-04T20:24:50;17.58;;;7.43;;
76617;SDS011;65509;42.816;74.648;2023-02-04T20:27:24;21.38;;;8.48;;
76617;SDS011;65509;42.816;74.648;2023-02-04T20:29:51;15.35;;;6.88;;
76617;SDS011;65509;42.816;74.648;2023-02-04T20:32:19;18.42;;;7.60;;
76617;SDS011;65509;42.816;74.648;2023-02-04T20:34:50;16.50;;;7.20;;
76617;SDS011;65509;42.816;74.648;2023-02-04T20:37:19;20.83;;;7.97;;
76617;SDS011;65509;42.816;74.648;2023-02-04T20:39:46;15.30;;;6.85;;
76617;SDS011;65509;42.816;74.648;2023-02-04T20:44:42;15.15;;;6.47;;
76617;SDS011;65509;42.816;74.648;2023-02-04T20:47:12;17.77;;;6.90;;
76617;SDS011;65509;42.816;74.648;2023-02-04T20:49:40;15.70;;;6.93;;
76617;SDS011;65509;42.816;74.648;2023-02-04T20:52:12;25.35;;;7.50;;
76617;SDS011;65509;42.816;74.648;2023-02-04T20:54:55;18.20;;;7.57;;
76617;SDS011;65509;42.816;74.648;2023-02-04T20:57:20;16.00;;;7.75;;
76617;SDS011;65509;42.816;74.648;2023-02-04T20:59:46;14.60;;;6.40;;
76617;SDS011;65509;42.816;74.648;2023-02-04T21:02:16;13.93;;;5.95;;
76617;SDS011;65509;42.816;74.648;2023-02-04T21:04:42;13.30;;;5.82;;
76617;SDS011;65509;42.816;74.648;2023-02-04T21:07:19;15.07;;;6.40;;
76617;SDS011;65509;42.816;74.648;2023-02-04T21:09:45;12.57;;;4.60;;
76617;SDS011;65509;42.816;74.648;2023-02-04T21:12:10;16.25;;;5.47;;
76617;SDS011;65509;42.816;74.648;2023-02-04T21:14:36;10.52;;;4.45;;
76617;SDS011;65509;42.816;74.648;2023-02-04T21:17:01;8.80;;;4.28;;
76617;SDS011;65509;42.816;74.648;2023-02-04T21:19:27;7.95;;;3.97;;
76617;SDS011;65509;42.816;74.648;2023-02-04T21:21:53;8.98;;;4.45;;
76617;SDS011;65509;42.816;74.648;2023-02-04T21:24:20;10.45;;;4.57;;
76617;SDS011;65509;42.816;74.648;2023-02-04T21:26:46;9.30;;;4.50;;
76617;SDS011;65509;42.816;74.648;2023-02-04T21:29:11;67.07;;;29.15;;
76617;SDS011;65509;42.816;74.648;2023-02-04T21:31:36;35.58;;;15.25;;
76617;SDS011;65509;42.816;74.648;2023-02-04T21:34:02;26.33;;;11.25;;
76617;SDS011;65509;42.816;74.648;2023-02-04T21:36:27;15.85;;;7.20;;
76617;SDS011;65509;42.816;74.648;2023-02-04T21:38:53;17.83;;;7.50;;
76617;SDS011;65509;42.816;74.648;2023-02-04T21:41:19;26.48;;;10.38;;
76617;SDS011;65509;42.816;74.648;2023-02-04T21:43:45;20.75;;;9.07;;
76617;SDS011;65509;42.816;74.648;2023-02-04T21:46:10;17.00;;;7.80;;
76617;SDS011;65509;42.816;74.648;2023-02-04T21:48:36;16.88;;;7.03;;
76617;SDS011;65509;42.816;74.648;2023-02-04T21:51:01;16.05;;;6.13;;
76617;SDS011;65509;42.816;74.648;2023-02-04T21:53:26;13.88;;;6.38;;
76617;SDS011;65509;42.816;74.648;2023-02-04T21:55:52;12.48;;;5.65;;
76617;SDS011;65509;42.816;74.648;2023-02-04T21:58:17;18.55;;;5.93;;
76617;SDS011;65509;42.816;74.648;2023-02-04T22:00:43;14.60;;;5.38;;
76617;SDS011;65509;42.816;74.648;2023-02-04T22:03:08;12.90;;;5.53;;
76617;SDS011;65509;42.816;74.648;2023-02-04T22:05:39;15.48;;;5.82;;
76617;SDS011;65509;42.816;74.648;2023-02-04T22:08:05;15.10;;;6.63;;
76617;SDS011;65509;42.816;74.648;2023-02-04T22:10:30;15.13;;;6.55;;
76617;SDS011;65509;42.816;74.648;2023-02-04T22:12:55;14.63;;;6.78;;
76617;SDS011;65509;42.816;74.648;2023-02-04T22:15:21;22.90;;;7.38;;
76617;SDS011;65509;42.816;74.648;2023-02-04T22:17:48;12.43;;;5.82;;
76617;SDS011;65509;42.816;74.648;2023-02-04T22:20:14;12.48;;;5.60;;
76617;SDS011;65509;42.816;74.648;2023-02-04T22:22:41;10.43;;;4.22;;
76617;SDS011;65509;42.816;74.648;2023-02-04T22:25:06;7.70;;;3.97;;
76617;SDS011;65509;42.816;74.648;2023-02-04T22:27:32;7.43;;;3.38;;
76617;SDS011;65509;42.816;74.648;2023-02-04T22:29:57;9.27;;;3.28;;
76617;SDS011;65509;42.816;74.648;2023-02-04T22:32:26;10.02;;;4.68;;
76617;SDS011;65509;42.816;74.648;2023-02-04T22:34:51;21.55;;;7.55;;
76617;SDS011;65509;42.816;74.648;2023-02-04T22:37:17;17.08;;;6.40;;
76617;SDS011;65509;42.816;74.648;2023-02-04T22:39:42;19.58;;;7.47;;
76617;SDS011;65509;42.816;74.648;2023-02-04T22:42:07;15.70;;;6.25;;
76617;SDS011;65509;42.816;74.648;2023-02-04T22:44:33;16.40;;;6.65;;
76617;SDS011;65509;42.816;74.648;2023-02-04T22:46:58;17.20;;;6.55;;
76617;SDS011;65509;42.816;74.648;2023-02-04T22:49:24;11.90;;;4.75;;
76617;SDS011;65509;42.816;74.648;2023-02-04T22:51:49;27.75;;;8.30;;
76617;SDS011;65509;42.816;74.648;2023-02-04T22:54:15;23.20;;;8.50;;
76617;SDS011;65509;42.816;74.648;2023-02-04T22:56:40;22.98;;;9.75;;
76617;SDS011;65509;42.816;74.648;2023-02-04T22:59:06;19.60;;;8.57;;
76617;SDS011;65509;42.816;74.648;2023-02-04T23:01:31;16.83;;;6.18;;
76617;SDS011;65509;42.816;74.648;2023-02-04T23:03:56;11.40;;;5.03;;
76617;SDS011;65509;42.816;74.648;2023-02-04T23:06:22;14.38;;;5.72;;
76617;SDS011;65509;42.816;74.648;2023-02-04T23:08:47;13.75;;;6.03;;
76617;SDS011;65509;42.816;74.648;2023-02-04T23:11:13;14.90;;;5.47;;
76617;SDS011;65509;42.816;74.648;2023-02-04T23:13:39;21.35;;;9.48;;
76617;SDS011;65509;42.816;74.648;2023-02-04T23:16:05;21.63;;;11.35;;
76617;SDS011;65509;42.816;74.648;2023-02-04T23:18:30;21.27;;;10.82;;
76617;SDS011;65509;42.816;74.648;2023-02-04T23:20:55;27.35;;;12.95;;
76617;SDS011;65509;42.816;74.648;2023-02-04T23:23:21;42.28;;;17.42;;
76617;SDS011;65509;42.816;74.648;2023-02-04T23:25:46;26.50;;;11.80;;
76617;SDS011;65509;42.816;74.648;2023-02-04T23:28:12;13.27;;;5.45;;
76617;SDS011;65509;42.816;74.648;2023-02-04T23:30:38;24.55;;;10.85;;
76617;SDS011;65509;42.816;74.648;2023-02-04T23:33:03;14.02;;;5.75;;
76617;SDS011;65509;42.816;74.648;2023-02-04T23:35:29;15.27;;;6.60;;
76617;SDS011;65509;42.816;74.648;2023-02-04T23:37:54;23.92;;;9.55;;
76617;SDS011;65509;42.816;74.648;2023-02-04T23:40:20;18.35;;;8.30;;
76617;SDS011;65509;42.816;74.648;2023-02-04T23:42:45;22.65;;;9.52;;
76617;SDS011;65509;42.816;74.648;2023-02-04T23:45:11;24.27;;;8.82;;
76617;SDS011;65509;42.816;74.648;2023-02-04T23:47:36;28.63;;;9.23;;
76617;SDS011;65509;42.816;74.648;2023-02-04T23:50:02;34.03;;;11.48;;
76617;SDS011;65509;42.816;74.648;2023-02-04T23:52:27;26.55;;;11.68;;
76617;SDS011;65509;42.816;74.648;2023-02-04T23:54:53;26.08;;;11.75;;
76617;SDS011;65509;42.816;74.648;2023-02-04T23:57:18;36.80;;;12.50;;
76617;SDS011;65509;42.816;74.648;2023-02-04T23:59:44;34.33;;;14.95;;
